Time;durP1;ratioP1;P1;durP2;ratioP2;P2;SDS_P1;SDS_P2;PMS_P1;PMS_P2;Temp;Humidity;BMP_temperature;BMP_pressure;BME280_temperature;BME280_humidity;BME280_pressure;Samples;Min_cycle;Max_cycle;Signal;HPM_P1;HPM_P2
2024/02/06 00:01:26;;;;;;;9.70;6.43;;;;;;;-4.14;100.00;98956.44;5054058;28;20370;-68
2024/02/06 00:03:51;;;;;;;5.57;4.07;;;;;;;-4.03;100.00;98970.44;5054620;28;20036;-70
2024/02/06 00:06:17;;;;;;;3.83;3.43;;;;;;;-4.01;100.00;98978.94;5065191;28;20025;-70
2024/02/06 00:08:42;;;;;;;6.70;5.67;;;;;;;-4.00;100.00;98978.00;5070598;28;20093;-69
2024/02/06 00:11:08;;;;;;;5.63;4.33;;;;;;;-4.10;100.00;98965.66;5063123;28;20032;-70
2024/02/06 00:13:34;;;;;;;5.23;3.97;;;;;;;-4.07;100.00;98975.84;5060914;28;20382;-70
2024/02/06 00:16:00;;;;;;;4.45;3.92;;;;;;;-4.03;100.00;98986.03;5066111;28;20044;-69
2024/02/06 00:18:26;;;;;;;8.60;6.45;;;;;;;-4.17;100.00;98964.47;5057196;28;20037;-70
2024/02/06 00:20:52;;;;;;;4.73;3.30;;;;;;;-4.01;99.98;98989.34;5055944;28;20053;-69
2024/02/06 00:23:17;;;;;;;3.27;2.97;;;;;;;-4.19;99.69;98966.34;5054901;28;20523;-70
2024/02/06 00:25:43;;;;;;;3.73;3.43;;;;;;;-4.28;99.00;98964.44;5053162;28;20063;-68
2024/02/06 00:28:09;;;;;;;3.57;2.73;;;;;;;-4.43;99.71;98958.59;5053317;28;20132;-70
2024/02/06 00:30:34;;;;;;;4.17;3.23;;;;;;;-4.25;100.00;98982.41;5052088;28;20044;-69
2024/02/06 00:32:59;;;;;;;3.73;3.23;;;;;;;-4.46;100.00;98958.81;5053390;28;20029;-70
2024/02/06 00:35:25;;;;;;;3.40;3.10;;;;;;;-4.39;99.93;98969.56;5052992;28;20063;-70
2024/02/06 00:37:52;;;;;;;4.07;3.40;;;;;;;-4.41;99.47;98990.47;5052700;28;20071;-69
2024/02/06 00:40:18;;;;;;;3.00;2.80;;;;;;;-4.49;99.66;98974.63;5051616;28;20082;-69
2024/02/06 00:42:44;;;;;;;5.00;3.00;;;;;;;-4.48;99.22;99007.47;5052554;28;20033;-72
2024/02/06 00:45:09;;;;;;;4.17;2.70;;;;;;;-4.81;100.00;98943.19;5052785;28;20043;-69
2024/02/06 00:47:35;;;;;;;3.87;2.83;;;;;;;-4.41;99.77;99013.03;5051792;28;20500;-70
2024/02/06 00:50:00;;;;;;;3.73;3.33;;;;;;;-4.47;100.00;98997.91;5052058;28;20032;-69
2024/02/06 00:52:26;;;;;;;4.30;2.73;;;;;;;-4.38;100.00;99010.22;5034475;28;20040;-70
2024/02/06 00:54:51;;;;;;;3.80;3.50;;;;;;;-4.44;99.63;99002.88;5052802;28;20059;-69
2024/02/06 00:57:16;;;;;;;4.90;3.47;;;;;;;-4.40;100.00;99006.91;5051324;28;20090;-70
2024/02/06 00:59:42;;;;;;;3.67;3.37;;;;;;;-4.28;99.20;99024.22;5035384;28;20489;-69
2024/02/06 01:02:07;;;;;;;3.40;3.10;;;;;;;-4.28;100.00;99026.81;5052282;28;20094;-70
2024/02/06 01:04:33;;;;;;;5.17;3.27;;;;;;;-4.44;99.12;99023.66;5050918;28;20033;-70
2024/02/06 01:06:58;;;;;;;3.27;2.97;;;;;;;-4.58;99.62;99021.22;5050947;28;20029;-68
2024/02/06 01:09:24;;;;;;;4.70;3.07;;;;;;;-4.59;99.28;99029.97;5050789;28;20040;-69
2024/02/06 01:11:49;;;;;;;3.37;3.07;;;;;;;-4.87;99.82;99011.16;5051822;28;20033;-68
2024/02/06 01:14:15;;;;;;;4.50;3.73;;;;;;;-4.75;100.00;99031.03;5052061;28;20380;-70
2024/02/06 01:16:40;;;;;;;4.27;3.00;;;;;;;-4.67;98.98;99046.91;5050770;28;20037;-68
2024/02/06 01:19:07;;;;;;;3.40;3.10;;;;;;;-4.67;98.85;99044.31;5051907;28;20057;-71
2024/02/06 01:21:34;;;;;;;3.78;2.97;;;;;;;-4.77;99.75;99038.13;5051926;28;20454;-68
2024/02/06 01:23:59;;;;;;;3.95;3.22;;;;;;;-5.04;99.04;98982.94;5052050;28;20507;-70
2024/02/06 01:26:25;;;;;;;3.13;2.83;;;;;;;-4.75;99.36;99030.22;5051523;28;20024;-69
2024/02/06 01:28:50;;;;;;;3.90;3.23;;;;;;;-4.56;99.15;99060.91;5051639;28;20033;-69
2024/02/06 01:31:16;;;;;;;3.30;2.87;;;;;;;-4.54;98.92;99046.88;5051456;28;20060;-69
2024/02/06 01:33:41;;;;;;;2.93;2.67;;;;;;;-4.52;99.40;99054.56;5051534;28;20069;-69
2024/02/06 01:36:07;;;;;;;3.00;2.70;;;;;;;-4.54;98.87;99072.84;5052240;28;20491;-69
2024/02/06 01:38:33;;;;;;;5.05;4.15;;;;;;;-4.55;98.91;99068.59;5052048;28;20408;-68
2024/02/06 01:40:58;;;;;;;5.07;4.07;;;;;;;-4.56;99.38;99077.34;5049920;28;20033;-69
2024/02/06 01:43:24;;;;;;;5.53;4.37;;;;;;;-4.76;100.00;99055.34;5051448;28;20043;-70
2024/02/06 01:45:52;;;;;;;6.70;4.40;;;;;;;-4.74;100.00;99063.03;5051535;28;20037;-70
2024/02/06 01:48:18;;;;;;;3.92;3.47;;;;;;;-4.99;100.00;99018.00;5051440;28;20033;-70
2024/02/06 01:50:45;;;;;;;5.22;4.20;;;;;;;-4.85;99.37;99039.59;5050145;28;20049;-68
2024/02/06 01:53:11;;;;;;;6.03;3.90;;;;;;;-4.65;100.00;99090.13;5050565;28;20032;-69
2024/02/06 01:55:37;;;;;;;5.25;3.60;;;;;;;-4.64;100.00;99079.63;5051709;28;20664;-69
2024/02/06 01:58:02;;;;;;;4.00;3.50;;;;;;;-4.61;100.00;99081.22;5053646;28;20140;-69
2024/02/06 02:00:29;;;;;;;4.00;3.37;;;;;;;-4.57;98.50;99093.03;5052488;28;20488;-69
2024/02/06 02:02:56;;;;;;;3.75;3.08;;;;;;;-4.66;99.53;99086.69;5051643;28;20037;-70
2024/02/06 02:05:22;;;;;;;3.70;3.30;;;;;;;-4.68;100.00;99081.59;5053369;28;20093;-70
2024/02/06 02:07:48;;;;;;;3.27;2.83;;;;;;;-4.64;98.72;99094.38;5055381;28;20105;-69
2024/02/06 02:10:13;;;;;;;3.23;2.93;;;;;;;-4.63;98.93;99093.44;5054405;28;20048;-69
2024/02/06 02:12:40;;;;;;;3.47;3.17;;;;;;;-4.60;99.25;99086.28;5055520;28;20532;-69
2024/02/06 02:15:06;;;;;;;4.05;3.33;;;;;;;-4.48;98.50;99107.97;5055564;28;20029;-70
2024/02/06 02:17:32;;;;;;;4.10;2.88;;;;;;;-4.71;96.89;99089.63;5055432;28;20029;-69
2024/02/06 02:19:57;;;;;;;3.20;2.87;;;;;;;-4.93;97.74;99084.25;5055356;28;20424;-69
2024/02/06 02:22:23;;;;;;;5.07;2.90;;;;;;;-4.97;99.34;99088.00;5055423;28;20056;-71
2024/02/06 02:24:50;;;;;;;3.37;2.90;;;;;;;-4.83;98.84;99116.44;5056587;28;20135;-70
2024/02/06 02:27:16;;;;;;;4.15;3.60;;;;;;;-4.81;98.49;99116.34;5055689;28;20041;-69
2024/02/06 02:29:42;;;;;;;4.18;2.95;;;;;;;-4.77;98.35;99123.81;5055494;28;20131;-68
2024/02/06 02:32:09;;;;;;;3.97;3.13;;;;;;;-4.83;97.02;99119.06;5055117;28;20487;-68
2024/02/06 02:34:35;;;;;;;5.03;3.50;;;;;;;-5.14;96.80;99083.16;5054915;28;20064;-70
2024/02/06 02:37:01;;;;;;;3.77;3.10;;;;;;;-5.04;96.80;99097.16;5054846;28;20087;-70
2024/02/06 02:39:27;;;;;;;4.43;3.15;;;;;;;-4.87;97.34;99133.19;5054739;28;20044;-69
2024/02/06 02:41:52;;;;;;;4.47;3.63;;;;;;;-5.01;96.85;99128.09;5055528;28;20041;-71
2024/02/06 02:44:18;;;;;;;5.20;3.90;;;;;;;-5.37;97.85;99075.16;5055039;28;20033;-68
2024/02/06 02:46:44;;;;;;;3.60;3.30;;;;;;;-5.10;98.91;99134.75;5053421;28;20108;-70
2024/02/06 02:49:09;;;;;;;3.42;3.13;;;;;;;-5.16;99.89;99123.94;5054654;28;20052;-68
2024/02/06 02:51:35;;;;;;;3.70;3.30;;;;;;;-5.14;98.84;99125.50;5054689;28;20497;-68
2024/02/06 02:54:00;;;;;;;3.50;3.20;;;;;;;-5.06;99.60;99145.75;5054541;28;20067;-70
2024/02/06 02:56:26;;;;;;;4.23;3.83;;;;;;;-5.11;99.80;99138.28;5054688;28;20041;-69
2024/02/06 02:58:51;;;;;;;3.93;3.53;;;;;;;-4.94;99.82;99149.25;5054740;28;20037;-68
2024/02/06 03:01:17;;;;;;;3.53;3.20;;;;;;;-5.03;98.10;99142.94;5054335;28;20571;-68
2024/02/06 03:03:42;;;;;;;5.37;3.40;;;;;;;-5.39;97.78;99108.16;5054656;28;20041;-69
2024/02/06 03:06:08;;;;;;;3.83;3.20;;;;;;;-5.20;98.52;99135.47;5052965;28;20039;-68
2024/02/06 03:08:33;;;;;;;4.50;3.20;;;;;;;-5.41;98.65;99120.41;5052783;28;20036;-69
2024/02/06 03:11:01;;;;;;;3.70;3.40;;;;;;;-5.25;99.61;99146.13;5054406;28;20044;-68
2024/02/06 03:13:27;;;;;;;3.88;3.55;;;;;;;-5.42;99.33;99123.09;5053322;28;20037;-70
2024/02/06 03:15:55;;;;;;;5.70;3.50;;;;;;;-5.34;99.13;99137.22;5052771;28;20048;-69
2024/02/06 03:18:20;;;;;;;5.70;4.20;;;;;;;-5.29;99.69;99162.84;5054132;28;20144;-69
2024/02/06 03:20:46;;;;;;;3.50;3.20;;;;;;;-5.33;99.95;99151.00;5052274;28;20143;-70
2024/02/06 03:23:14;;;;;;;3.43;3.13;;;;;;;-5.39;98.91;99162.63;5052446;28;20056;-70
2024/02/06 03:25:39;;;;;;;3.33;3.03;;;;;;;-5.77;97.73;99117.66;5054252;28;20090;-68
2024/02/06 03:28:05;;;;;;;3.83;3.53;;;;;;;-5.64;98.38;99147.00;5054590;28;20033;-69
2024/02/06 03:30:30;;;;;;;3.77;3.43;;;;;;;-5.64;98.10;99153.03;5053299;28;20088;-70
2024/02/06 03:32:56;;;;;;;3.50;3.20;;;;;;;-5.77;97.62;99138.38;5053836;28;20124;-70
2024/02/06 03:35:21;;;;;;;4.43;2.60;;;;;;;-5.58;97.75;99175.13;5052383;28;20116;-70
2024/02/06 03:37:47;;;;;;;4.17;3.37;;;;;;;-5.82;97.36;99155.97;5052509;28;20033;-71
2024/02/06 03:40:12;;;;;;;3.10;2.80;;;;;;;-5.76;97.64;99184.97;5053687;28;20588;-70
2024/02/06 03:42:37;;;;;;;3.07;2.83;;;;;;;-5.84;97.48;99188.94;5053741;28;20044;-71
2024/02/06 03:45:05;;;;;;;3.20;2.90;;;;;;;-5.93;97.84;99188.66;5054342;28;20037;-69
2024/02/06 03:47:30;;;;;;;5.03;3.50;;;;;;;-6.02;98.01;99185.81;5052398;28;20044;-71
2024/02/06 03:49:56;;;;;;;4.03;3.20;;;;;;;-6.11;98.39;99171.66;5053494;28;20033;-70
2024/02/06 03:52:21;;;;;;;4.03;3.23;;;;;;;-6.26;99.87;99147.56;5052423;28;20037;-71
2024/02/06 03:54:47;;;;;;;7.13;3.93;;;;;;;-5.91;99.90;99185.94;5052374;28;20106;-68
2024/02/06 03:57:12;;;;;;;7.30;3.47;;;;;;;-5.97;99.39;99186.34;5052284;28;20562;-68
2024/02/06 03:59:39;;;;;;;3.90;3.53;;;;;;;-6.01;98.68;99185.72;5053708;28;20037;-71
2024/02/06 04:02:04;;;;;;;3.78;3.40;;;;;;;-6.08;98.86;99194.78;5054570;28;20135;-68
2024/02/06 04:04:30;;;;;;;3.80;3.23;;;;;;;-6.16;98.94;99197.03;5053226;28;20496;-69
2024/02/06 04:06:55;;;;;;;3.73;3.43;;;;;;;-6.32;98.77;99188.56;5053944;28;20043;-69
2024/02/06 04:09:21;;;;;;;3.27;3.00;;;;;;;-6.43;99.17;99201.31;5053715;28;20047;-71
2024/02/06 04:11:46;;;;;;;4.33;3.90;;;;;;;-6.61;99.27;99177.41;5053725;28;20032;-70
2024/02/06 04:14:12;;;;;;;5.37;3.80;;;;;;;-6.53;100.00;99197.63;5054120;28;20374;-69
2024/02/06 04:16:37;;;;;;;4.47;3.33;;;;;;;-6.47;100.00;99205.03;5055075;28;20037;-69
2024/02/06 04:19:04;;;;;;;6.07;3.47;;;;;;;-6.63;100.00;99213.75;5038025;28;20049;-70
2024/02/06 04:21:30;;;;;;;5.10;2.92;;;;;;;-6.53;100.00;99226.94;5034655;28;20090;-72
2024/02/06 04:23:56;;;;;;;6.60;3.65;;;;;;;-6.73;100.00;99202.25;5052706;28;20045;-71
2024/02/06 04:26:21;;;;;;;5.00;4.33;;;;;;;-6.63;100.00;99205.97;5052927;28;20140;-70
2024/02/06 04:28:47;;;;;;;5.17;3.93;;;;;;;-6.57;100.00;99220.31;5051179;28;20503;-69
2024/02/06 04:31:12;;;;;;;4.73;4.03;;;;;;;-6.64;100.00;99200.88;5053045;28;20106;-72
2024/02/06 04:33:56;;;;;;;3.97;3.57;;;;;;;-6.83;100.00;99162.31;5052477;28;20040;-70
2024/02/06 04:36:22;;;;;;;4.18;3.78;;;;;;;-6.40;100.00;99224.44;5052559;28;20086;-70
2024/02/06 04:38:49;;;;;;;7.30;5.20;;;;;;;-6.33;100.00;99244.72;5050743;28;20463;-70
2024/02/06 04:41:14;;;;;;;4.32;3.92;;;;;;;-6.65;100.00;99207.81;5052486;28;20041;-74
2024/02/06 04:43:43;;;;;;;3.50;3.20;;;;;;;-6.41;100.00;99243.50;5051100;28;20044;-76
2024/02/06 04:46:09;;;;;;;3.65;3.35;;;;;;;-6.51;100.00;99234.63;5052106;28;20064;-70
2024/02/06 04:48:59;;;;;;;3.40;3.10;;;;;;;-6.53;99.78;99258.03;5039779;28;20052;-71
2024/02/06 04:51:25;;;;;;;5.00;3.50;;;;;;;-6.60;100.00;99254.97;5037414;28;20036;-76
2024/02/06 04:54:03;;;;;;;3.87;3.57;;;;;;;-6.73;100.00;99241.09;5053244;28;20035;-71
2024/02/06 04:56:32;;;;;;;5.10;3.63;;;;;;;-6.76;100.00;99259.41;5051012;28;20037;-74
2024/02/06 04:59:01;;;;;;;4.63;3.73;;;;;;;-7.30;100.00;99186.66;5050271;28;20041;-74
2024/02/06 05:01:27;;;;;;;4.15;3.35;;;;;;;-7.31;99.68;99190.16;5050973;28;20318;-71
2024/02/06 05:03:52;;;;;;;4.00;3.60;;;;;;;-8.38;100.00;99024.97;5052336;28;20480;-71
2024/02/06 05:06:18;;;;;;;4.07;3.77;;;;;;;-8.07;100.00;99105.84;5033933;28;20043;-69
2024/02/06 05:08:44;;;;;;;4.53;4.13;;;;;;;-7.08;100.00;99275.97;5051312;28;20057;-72
2024/02/06 05:11:10;;;;;;;4.57;4.17;;;;;;;-7.16;100.00;99247.13;5055137;28;20037;-72
2024/02/06 05:13:36;;;;;;;3.55;3.25;;;;;;;-7.40;100.00;99188.13;5053446;28;20065;-71
2024/02/06 05:16:05;;;;;;;4.83;3.70;;;;;;;-6.84;100.00;99277.13;5035561;28;20126;-74
2024/02/06 05:18:30;;;;;;;5.32;3.67;;;;;;;-7.06;100.00;99238.72;5052545;28;20044;-71
2024/02/06 05:20:58;;;;;;;9.00;4.53;;;;;;;-6.99;100.00;99244.38;5030024;28;20103;-73
2024/02/06 05:23:24;;;;;;;8.27;4.22;;;;;;;-6.94;100.00;99257.88;5031449;28;20046;-71
2024/02/06 05:25:49;;;;;;;3.90;3.53;;;;;;;-6.89;99.50;99284.34;5030349;28;20048;-72
2024/02/06 05:28:15;;;;;;;4.00;3.70;;;;;;;-7.35;100.00;99224.88;5013383;28;20378;-72
2024/02/06 05:30:41;;;;;;;3.87;3.57;;;;;;;-7.58;100.00;99199.50;5031805;28;20128;-71
2024/02/06 05:33:06;;;;;;;3.60;3.30;;;;;;;-7.53;99.09;99241.44;5014777;28;20037;-72
2024/02/06 05:35:32;;;;;;;3.53;3.30;;;;;;;-7.40;99.86;99275.19;5030711;28;20152;-70
2024/02/06 05:37:59;;;;;;;3.43;3.13;;;;;;;-8.37;99.80;99131.66;5014032;28;20037;-73
2024/02/06 05:40:29;;;;;;;4.25;3.10;;;;;;;-7.79;99.75;99222.22;5012700;28;20045;-72
2024/02/06 05:42:55;;;;;;;4.60;3.25;;;;;;;-7.56;99.79;99265.72;5028975;28;20416;-72
2024/02/06 05:45:21;;;;;;;3.70;3.33;;;;;;;-8.35;100.00;99140.13;5029192;28;20034;-71
2024/02/06 05:47:47;;;;;;;5.40;4.10;;;;;;;-7.47;100.00;99281.66;5029335;28;20453;-74
2024/02/06 05:50:13;;;;;;;4.20;3.80;;;;;;;-7.95;100.00;99213.66;5046418;28;20138;-71
2024/02/06 05:52:39;;;;;;;4.47;4.07;;;;;;;-7.68;100.00;99263.81;5029615;28;20025;-71
2024/02/06 05:55:08;;;;;;;8.57;4.67;;;;;;;-7.82;100.00;99237.88;5029403;28;20481;-70
2024/02/06 05:57:34;;;;;;;5.63;4.53;;;;;;;-7.66;100.00;99243.03;5013530;28;20045;-72
2024/02/06 05:59:59;;;;;;;4.47;3.70;;;;;;;-7.48;100.00;99259.28;5030591;28;20322;-73
2024/02/06 06:02:25;;;;;;;3.53;3.23;;;;;;;-7.03;100.00;99330.88;5013404;28;20033;-72
2024/02/06 06:04:51;;;;;;;4.60;4.20;;;;;;;-7.46;99.78;99250.53;5046343;28;20444;-71
2024/02/06 06:07:17;;;;;;;4.77;3.43;;;;;;;-7.46;98.83;99291.91;5030275;28;20078;-72
2024/02/06 06:09:43;;;;;;;4.40;3.63;;;;;;;-7.31;99.62;99322.06;5047459;28;20049;-73
2024/02/06 06:12:09;;;;;;;5.00;4.00;;;;;;;-7.56;99.89;99294.16;5030341;28;20065;-72
2024/02/06 06:14:34;;;;;;;5.47;3.50;;;;;;;-7.82;99.91;99254.22;5026736;28;20519;-72
2024/02/06 06:17:00;;;;;;;4.33;3.93;;;;;;;-8.45;99.92;99137.19;5044138;28;20032;-74
2024/02/06 06:19:27;;;;;;;3.87;3.57;;;;;;;-7.95;99.21;99211.06;5033655;28;20198;-73
2024/02/06 06:21:55;;;;;;;4.95;4.45;;;;;;;-7.42;97.71;99316.66;5032750;28;20079;-73
2024/02/06 06:24:21;;;;;;;4.22;3.60;;;;;;;-8.22;97.07;99205.66;5032457;28;20041;-75
2024/02/06 06:26:53;;;;;;;5.47;3.60;;;;;;;-8.24;97.42;99205.72;5060619;28;20455;-76
2024/02/06 06:29:31;;;;;;;6.00;4.68;;;;;;;-8.59;97.75;99152.63;5051113;28;20291;-76
2024/02/06 06:31:57;;;;;;;3.88;3.47;;;;;;;-7.67;98.37;99298.25;5040282;28;20037;-72
2024/02/06 06:34:23;;;;;;;5.20;3.53;;;;;;;-7.27;97.13;99352.00;5032974;28;20031;-76
2024/02/06 06:36:49;;;;;;;7.70;4.03;;;;;;;-7.91;94.08;99288.31;5030132;28;20037;-74
2024/02/06 06:39:18;;;;;;;4.37;3.90;;;;;;;-8.62;94.78;99161.34;5032400;28;20271;-75
2024/02/06 06:41:45;;;;;;;3.50;3.20;;;;;;;-8.59;94.37;99171.50;5032453;28;20068;-73
2024/02/06 06:44:11;;;;;;;5.03;3.92;;;;;;;-8.24;94.19;99236.72;5049150;28;20358;-74
2024/02/06 06:46:37;;;;;;;3.87;3.50;;;;;;;-8.24;94.82;99252.22;5051285;28;20244;-70
2024/02/06 06:49:02;;;;;;;4.13;3.77;;;;;;;-8.14;94.50;99289.53;5050276;28;20041;-69
2024/02/06 06:51:28;;;;;;;4.93;3.43;;;;;;;-7.66;95.25;99346.44;5034377;28;20049;-72
2024/02/06 06:53:54;;;;;;;3.90;3.50;;;;;;;-7.71;95.33;99314.84;5051659;28;20037;-75
2024/02/06 06:56:20;;;;;;;6.75;4.05;;;;;;;-8.14;93.83;99255.13;5019314;28;20106;-73
2024/02/06 06:58:46;;;;;;;3.80;3.30;;;;;;;-8.50;93.65;99189.09;5053177;28;20473;-73
2024/02/06 07:01:12;;;;;;;3.63;3.07;;;;;;;-7.94;93.47;99274.75;5053131;28;20386;-71
2024/02/06 07:03:40;;;;;;;5.63;3.93;;;;;;;-7.52;93.10;99354.28;5052421;28;20041;-74
2024/02/06 07:06:07;;;;;;;5.47;4.45;;;;;;;-7.41;92.65;99395.09;5053670;28;20098;-75
2024/02/06 07:08:33;;;;;;;3.92;3.63;;;;;;;-8.75;92.62;99180.97;5053295;28;20034;-73
2024/02/06 07:10:58;;;;;;;4.53;3.72;;;;;;;-8.33;93.45;99285.47;5054306;28;20047;-75
2024/02/06 07:13:24;;;;;;;6.03;3.50;;;;;;;-7.74;94.67;99375.28;5037738;28;20124;-76
2024/02/06 07:15:50;;;;;;;5.60;4.07;;;;;;;-7.89;94.86;99340.75;5054453;28;20131;-74
2024/02/06 07:18:16;;;;;;;5.50;4.40;;;;;;;-7.71;92.39;99392.38;5037777;28;20496;-70
2024/02/06 07:20:42;;;;;;;4.10;3.70;;;;;;;-7.66;92.85;99418.81;5037398;28;20420;-72
2024/02/06 07:23:08;;;;;;;6.60;3.60;;;;;;;-8.08;93.27;99376.25;5037672;28;20052;-71
2024/02/06 07:25:34;;;;;;;4.50;4.10;;;;;;;-8.08;92.02;99409.00;5036342;28;20473;-72
2024/02/06 07:28:04;;;;;;;5.97;3.30;;;;;;;-8.56;90.86;99370.09;5036937;28;20061;-73
2024/02/06 07:30:34;;;;;;;4.00;3.60;;;;;;;-8.94;91.04;99346.19;5036307;28;20048;-75
2024/02/06 07:33:00;;;;;;;5.55;4.00;;;;;;;-9.34;91.70;99290.53;5038061;28;20035;-72
2024/02/06 07:35:25;;;;;;;4.40;3.97;;;;;;;-9.31;91.74;99300.72;5052828;28;20036;-75
2024/02/06 07:37:51;;;;;;;3.93;3.60;;;;;;;-8.45;92.47;99439.25;5050261;28;20048;-70
2024/02/06 07:40:16;;;;;;;5.37;4.37;;;;;;;-8.67;92.67;99411.09;5045589;28;20036;-71
2024/02/06 07:42:43;;;;;;;7.77;4.97;;;;;;;-8.55;92.50;99441.47;5034174;28;20045;-74
2024/02/06 07:45:09;;;;;;;4.85;4.30;;;;;;;-8.70;92.29;99418.97;5033337;28;20060;-75
2024/02/06 07:47:34;;;;;;;5.30;4.53;;;;;;;-8.60;91.54;99432.28;5049337;28;20033;-76
2024/02/06 07:49:59;;;;;;;4.87;3.80;;;;;;;-8.50;91.82;99454.97;5034619;28;20507;-76
2024/02/06 07:52:26;;;;;;;4.43;4.03;;;;;;;-8.36;91.39;99462.06;5034778;28;20045;-77
2024/02/06 07:54:52;;;;;;;6.30;4.20;;;;;;;-8.56;90.94;99432.06;5033135;28;20043;-77
2024/02/06 07:57:17;;;;;;;5.53;3.77;;;;;;;-8.53;91.41;99434.47;5053966;28;20115;-76
2024/02/06 07:59:43;;;;;;;6.07;4.57;;;;;;;-8.72;92.10;99407.88;5061245;28;20267;-78
2024/02/06 08:02:08;;;;;;;6.37;4.93;;;;;;;-8.47;92.61;99467.72;5055042;28;20037;-77
2024/02/06 08:04:34;;;;;;;5.17;4.20;;;;;;;-8.56;92.63;99473.34;5057222;28;20120;-75
2024/02/06 08:06:59;;;;;;;6.87;5.07;;;;;;;-8.86;92.59;99436.13;5058598;28;20061;-75
2024/02/06 08:09:24;;;;;;;5.97;3.57;;;;;;;-8.65;93.23;99470.38;5056366;28;20416;-74
2024/02/06 08:11:51;;;;;;;5.60;4.40;;;;;;;-8.70;93.07;99488.66;5058045;28;20059;-76
2024/02/06 08:14:17;;;;;;;4.72;4.25;;;;;;;-9.11;93.10;99428.69;5056274;28;20044;-77
2024/02/06 08:16:42;;;;;;;8.13;5.27;;;;;;;-8.89;93.97;99459.47;5058493;28;20033;-76
2024/02/06 08:19:10;;;;;;;6.57;4.47;;;;;;;-8.57;93.60;99512.97;5059012;28;20059;-76
2024/02/06 08:21:37;;;;;;;4.53;3.88;;;;;;;-8.60;94.04;99481.31;5053734;28;20127;-74
2024/02/06 08:24:04;;;;;;;5.70;4.45;;;;;;;-8.44;92.77;99495.16;5055480;28;20052;-76
2024/02/06 08:26:29;;;;;;;6.15;4.13;;;;;;;-8.26;92.08;99514.06;5054463;28;20033;-71
2024/02/06 08:28:55;;;;;;;4.03;3.73;;;;;;;-8.32;92.50;99498.84;5052305;28;20484;-76
2024/02/06 08:31:22;;;;;;;5.83;4.47;;;;;;;-8.38;91.48;99497.44;5035277;28;20516;-74
2024/02/06 08:33:49;;;;;;;4.63;3.63;;;;;;;-8.98;90.61;99418.63;5052667;28;20060;-77
2024/02/06 08:36:15;;;;;;;5.90;4.85;;;;;;;-8.54;91.92;99489.59;5035365;28;20048;-74
2024/02/06 08:38:41;;;;;;;5.13;4.13;;;;;;;-8.55;91.45;99480.19;5051229;28;20041;-76
2024/02/06 08:41:07;;;;;;;4.17;3.77;;;;;;;-8.37;91.13;99500.88;5050575;28;20041;-74
2024/02/06 08:43:32;;;;;;;4.83;3.97;;;;;;;-8.38;90.38;99525.00;5051005;28;20045;-71
2024/02/06 08:45:58;;;;;;;7.07;4.53;;;;;;;-8.62;90.92;99494.31;5052467;28;20819;-72
2024/02/06 08:48:24;;;;;;;6.50;4.30;;;;;;;-8.28;90.45;99545.13;5052574;28;20044;-75
2024/02/06 08:50:50;;;;;;;5.57;4.40;;;;;;;-8.31;90.83;99523.78;5051019;28;20043;-72
2024/02/06 08:53:16;;;;;;;8.10;4.55;;;;;;;-8.33;89.50;99515.28;5034371;28;20037;-76
2024/02/06 08:55:43;;;;;;;4.30;3.90;;;;;;;-8.51;88.90;99496.34;5052105;28;20440;-73
2024/02/06 08:58:10;;;;;;;6.50;4.10;;;;;;;-8.16;89.08;99548.84;5052247;28;20029;-73
2024/02/06 09:00:36;;;;;;;5.65;4.15;;;;;;;-8.28;88.97;99519.28;5050449;28;20040;-75
2024/02/06 09:03:02;;;;;;;5.37;4.00;;;;;;;-8.17;88.98;99511.84;5053186;28;20546;-79
2024/02/06 09:05:28;;;;;;;5.75;5.25;;;;;;;-7.97;87.81;99553.94;5052238;28;20347;-75
2024/02/06 09:07:54;;;;;;;4.72;4.10;;;;;;;-7.95;86.61;99565.88;5050715;28;20468;-77
2024/02/06 09:10:20;;;;;;;4.33;3.57;;;;;;;-8.12;87.36;99540.03;5051972;28;20060;-76
2024/02/06 09:12:46;;;;;;;5.03;4.63;;;;;;;-8.16;86.59;99548.84;5050872;28;20029;-77
2024/02/06 09:15:12;;;;;;;5.70;4.80;;;;;;;-8.33;86.59;99535.97;5050797;28;20035;-76
2024/02/06 09:17:37;;;;;;;5.30;4.80;;;;;;;-8.07;87.09;99568.25;5052862;28;20048;-75
2024/02/06 09:20:05;;;;;;;9.67;5.57;;;;;;;-8.31;87.07;99518.59;5054657;28;20111;-75
2024/02/06 09:22:31;;;;;;;5.28;4.20;;;;;;;-8.23;85.84;99532.81;5062099;28;20048;-75
2024/02/06 09:24:57;;;;;;;5.07;3.95;;;;;;;-8.22;87.24;99525.91;5064812;28;20092;-76
2024/02/06 09:27:22;;;;;;;5.30;3.90;;;;;;;-8.16;86.09;99517.84;5082303;28;20025;-74
2024/02/06 09:29:48;;;;;;;8.67;3.90;;;;;;;-8.09;86.83;99552.81;5060499;28;20032;-75
2024/02/06 09:32:14;;;;;;;7.47;4.90;;;;;;;-7.84;87.22;99550.66;5052048;28;20095;-72
2024/02/06 09:34:40;;;;;;;4.28;3.95;;;;;;;-8.34;85.68;99469.72;5045603;28;20029;-73
2024/02/06 09:37:05;;;;;;;7.27;3.60;;;;;;;-8.69;84.99;99454.19;5050664;28;20389;-76
2024/02/06 09:39:31;;;;;;;6.90;4.17;;;;;;;-7.98;85.28;99583.28;5051793;28;20048;-76
2024/02/06 09:42:01;;;;;;;6.75;3.90;;;;;;;-9.09;85.53;99442.34;5034470;28;20504;-76
2024/02/06 09:44:30;;;;;;;5.68;5.07;;;;;;;-8.25;86.51;99594.03;5051846;28;20037;-78
2024/02/06 09:46:58;;;;;;;6.72;4.88;;;;;;;-8.22;86.43;99583.56;5050558;28;20029;-76
2024/02/06 09:49:23;;;;;;;5.53;4.10;;;;;;;-8.33;87.58;99556.63;5050689;28;20036;-75
2024/02/06 09:51:50;;;;;;;7.07;4.13;;;;;;;-8.23;87.54;99563.81;5034549;28;20033;-74
2024/02/06 09:54:16;;;;;;;8.13;4.38;;;;;;;-7.99;86.41;99587.63;5052180;28;20103;-75
2024/02/06 09:56:45;;;;;;;7.30;4.95;;;;;;;-8.00;86.53;99578.19;5052837;28;20489;-76
2024/02/06 09:59:12;;;;;;;7.68;5.43;;;;;;;-7.95;86.89;99568.47;5055843;28;20095;-78
2024/02/06 10:01:42;;;;;;;6.40;4.97;;;;;;;-7.84;86.65;99553.25;5036103;28;20064;-73
2024/02/06 10:04:14;;;;;;;4.80;4.22;;;;;;;-7.42;84.84;99588.22;5054121;28;20082;-71
2024/02/06 10:06:40;;;;;;;9.98;5.60;;;;;;;-7.54;84.38;99570.72;5053737;28;20043;-72
2024/02/06 10:09:07;;;;;;;7.20;4.60;;;;;;;-7.24;83.91;99605.34;5053348;28;20120;-72
2024/02/06 10:11:34;;;;;;;7.93;5.20;;;;;;;-7.12;82.40;99603.06;5050056;28;20326;-73
2024/02/06 10:14:00;;;;;;;10.18;5.35;;;;;;;-7.22;83.25;99580.28;5052165;28;20039;-73
2024/02/06 10:17:02;;;;;;;4.95;4.35;;;;;;;-7.12;82.46;99587.53;5058703;28;20131;-78
2024/02/06 10:19:32;;;;;;;6.72;4.75;;;;;;;-6.96;80.88;99603.91;5052365;28;20425;-72
2024/02/06 10:21:59;;;;;;;4.30;3.90;;;;;;;-7.33;81.36;99577.38;5049947;28;20111;-69
2024/02/06 10:24:24;;;;;;;6.18;4.30;;;;;;;-7.60;81.23;99578.78;5031111;28;20060;-75
2024/02/06 10:27:05;;;;;;;5.17;4.47;;;;;;;-7.58;82.73;99595.88;5035480;28;20034;-72
2024/02/06 10:29:32;;;;;;;7.35;4.22;;;;;;;-7.51;83.21;99599.88;5039254;28;20037;-72
2024/02/06 10:32:01;;;;;;;6.47;4.88;;;;;;;-7.77;83.00;99586.56;5042088;28;20044;-73
2024/02/06 10:34:32;;;;;;;6.47;5.13;;;;;;;-7.81;82.85;99604.81;5057583;28;20068;-72
2024/02/06 10:37:04;;;;;;;7.25;4.15;;;;;;;-7.97;83.95;99585.78;5054482;28;20060;-75
2024/02/06 10:39:30;;;;;;;7.07;4.97;;;;;;;-8.12;84.72;99546.03;5054607;28;20144;-69
2024/02/06 10:42:03;;;;;;;6.23;4.70;;;;;;;-7.89;84.08;99583.66;5054237;28;20547;-71
2024/02/06 10:44:29;;;;;;;5.35;4.78;;;;;;;-8.15;84.62;99524.69;5054741;28;20033;-73
2024/02/06 10:47:02;;;;;;;8.97;5.03;;;;;;;-7.53;84.15;99600.81;5035775;28;20041;-66
2024/02/06 10:49:28;;;;;;;8.40;4.55;;;;;;;-7.58;83.63;99601.06;5053121;28;20128;-75
2024/02/06 10:52:05;;;;;;;10.27;4.75;;;;;;;-7.70;83.08;99583.59;5053650;28;20052;-70
2024/02/06 10:54:30;;;;;;;7.22;4.75;;;;;;;-7.56;83.99;99593.22;5053979;28;20063;-70
2024/02/06 10:57:10;;;;;;;6.70;4.77;;;;;;;-7.32;82.52;99610.09;5036473;28;20037;-71
2024/02/06 10:59:46;;;;;;;7.43;4.90;;;;;;;-7.20;82.41;99619.84;5053676;28;20063;-68
2024/02/06 11:02:25;;;;;;;6.72;4.28;;;;;;;-7.02;81.60;99612.00;5054922;28;20496;-70
2024/02/06 11:05:00;;;;;;;7.82;5.05;;;;;;;-7.00;79.68;99599.81;5051566;28;20039;-67
2024/02/06 11:07:29;;;;;;;5.93;4.93;;;;;;;-7.01;80.89;99609.34;5053943;28;20060;-74
2024/02/06 11:10:10;;;;;;;6.53;4.38;;;;;;;-7.12;80.82;99616.00;5051775;28;20043;-77
2024/02/06 11:12:38;;;;;;;7.15;5.07;;;;;;;-7.43;81.37;99575.34;5042686;28;20519;-71
2024/02/06 11:15:08;;;;;;;7.63;4.63;;;;;;;-7.29;81.45;99622.88;5050871;28;20139;-69
2024/02/06 11:17:37;;;;;;;7.75;5.10;;;;;;;-7.71;81.42;99594.00;5048366;28;20044;-69
2024/02/06 11:20:11;;;;;;;6.72;4.85;;;;;;;-7.71;81.79;99625.88;5028323;28;20053;-70
2024/02/06 11:22:40;;;;;;;6.78;5.07;;;;;;;-7.91;81.45;99616.50;5049426;28;20040;-70
2024/02/06 11:25:12;;;;;;;;;;;;;;;-7.84;83.12;99635.94;5052370;28;20412;-67
2024/02/06 11:27:41;;;;;;;6.28;4.68;;;;;;;-7.91;82.76;99623.41;5053071;28;19963;-69
2024/02/06 11:30:08;;;;;;;8.10;5.22;;;;;;;-7.90;82.75;99615.59;5048326;28;20408;-68